Time;durP1;ratioP1;P1;durP2;ratioP2;P2;SDS_P1;SDS_P2;PMS_P1;PMS_P2;Temp;Humidity;BMP_temperature;BMP_pressure;BME280_temperature;BME280_humidity;BME280_pressure;Samples;Min_cycle;Max_cycle;Signal;HPM_P1;HPM_P2
2023/07/24 04:01:12;;;;;;;1.97;1.87;;;18.30;99.90;;;;;;5521018;23;20547;-69
2023/07/24 04:03:39;;;;;;;6.83;1.60;;;18.30;99.90;;;;;;4914825;29;20477;-68
2023/07/24 04:06:05;;;;;;;1.60;1.60;;;18.30;99.90;;;;;;4915459;29;20470;-70
2023/07/24 04:08:32;;;;;;;2.70;1.60;;;18.40;99.90;;;;;;4916545;29;20462;-69
2023/07/24 04:10:59;;;;;;;1.60;1.60;;;18.40;99.90;;;;;;4910015;29;20487;-69
2023/07/24 04:13:25;;;;;;;1.70;1.60;;;18.40;99.90;;;;;;4897907;29;20589;-68
2023/07/24 04:15:52;;;;;;;2.53;1.40;;;18.50;99.90;;;;;;4897387;29;20815;-67
2023/07/24 04:18:20;;;;;;;1.90;1.90;;;18.50;99.90;;;;;;4897986;29;20842;-68
2023/07/24 04:20:46;;;;;;;1.83;1.70;;;18.50;99.90;;;;;;4897815;29;20492;-68
2023/07/24 04:23:13;;;;;;;1.40;1.30;;;18.60;99.90;;;;;;4897298;29;20479;-69
2023/07/24 04:25:40;;;;;;;1.53;1.33;;;18.60;99.90;;;;;;4897479;29;20494;-68
2023/07/24 04:28:06;;;;;;;1.60;1.50;;;18.70;99.90;;;;;;4897449;29;20482;-68
2023/07/24 04:30:33;;;;;;;1.70;1.70;;;18.80;99.90;;;;;;4897871;29;20510;-68
2023/07/24 04:33:00;;;;;;;1.30;1.30;;;18.80;99.90;;;;;;4897652;29;20535;-68
2023/07/24 04:35:29;;;;;;;2.30;2.20;;;18.80;99.90;;;;;;4897468;29;20478;-69
2023/07/24 04:37:57;;;;;;;1.37;1.37;;;18.90;99.90;;;;;;4896719;29;20468;-69
2023/07/24 04:40:24;;;;;;;7.10;1.40;;;18.90;99.90;;;;;;4897072;29;20503;-69
2023/07/24 04:42:50;;;;;;;1.53;1.37;;;19.10;99.90;;;;;;4897262;29;20467;-69
2023/07/24 04:45:17;;;;;;;1.37;1.20;;;19.00;99.90;;;;;;4897600;29;20576;-69
2023/07/24 04:47:44;;;;;;;2.13;2.03;;;19.00;99.90;;;;;;4897521;29;20479;-69
2023/07/24 04:50:11;;;;;;;1.30;1.23;;;18.90;99.90;;;;;;4897535;29;20971;-69
2023/07/24 04:52:39;;;;;;;1.77;1.77;;;18.90;99.90;;;;;;4896452;29;20471;-68
2023/07/24 04:55:06;;;;;;;1.23;1.23;;;19.00;99.90;;;;;;4896885;29;20535;-68
2023/07/24 04:57:33;;;;;;;2.00;1.90;;;19.20;99.90;;;;;;4897376;29;20745;-68
2023/07/24 05:00:00;;;;;;;4.00;1.90;;;19.20;99.90;;;;;;4897423;29;20547;-69
2023/07/24 05:02:26;;;;;;;1.40;1.40;;;19.30;99.90;;;;;;4896833;29;20503;-69
2023/07/24 05:04:53;;;;;;;2.07;2.07;;;19.30;99.90;;;;;;4897323;29;20676;-68
2023/07/24 05:07:20;;;;;;;1.00;1.00;;;19.40;99.90;;;;;;4897901;29;20472;-68
2023/07/24 05:09:48;;;;;;;1.80;1.67;;;19.40;99.90;;;;;;4901169;29;20493;-68
2023/07/24 05:12:15;;;;;;;1.77;1.77;;;19.40;99.90;;;;;;4897125;29;20491;-68
2023/07/24 05:14:41;;;;;;;2.33;2.23;;;19.30;99.90;;;;;;4896826;29;20473;-68
2023/07/24 05:17:08;;;;;;;1.50;1.40;;;19.30;99.90;;;;;;4896764;29;20468;-68
2023/07/24 05:19:34;;;;;;;1.90;1.90;;;19.30;99.90;;;;;;4896914;29;20965;-68
2023/07/24 05:22:01;;;;;;;1.63;1.63;;;19.30;99.90;;;;;;4895886;29;20658;-68
2023/07/24 05:24:28;;;;;;;1.23;1.23;;;19.40;99.90;;;;;;4896973;29;20523;-68
2023/07/24 05:26:56;;;;;;;1.50;1.50;;;19.40;99.90;;;;;;4896804;29;20479;-68
2023/07/24 05:29:23;;;;;;;1.70;1.70;;;19.40;99.90;;;;;;4896835;29;20490;-68
2023/07/24 05:31:49;;;;;;;1.67;1.67;;;19.40;99.90;;;;;;4896522;29;20548;-68
2023/07/24 05:34:16;;;;;;;1.67;1.67;;;19.50;99.90;;;;;;4896386;29;20550;-68
2023/07/24 05:36:43;;;;;;;1.47;1.37;;;19.70;99.90;;;;;;4895569;29;20530;-68
2023/07/24 05:39:09;;;;;;;2.03;2.03;;;19.80;99.90;;;;;;4891664;29;20815;-68
2023/07/24 05:41:36;;;;;;;1.77;1.77;;;19.90;99.90;;;;;;4895796;29;20487;-68
2023/07/24 05:44:04;;;;;;;2.00;2.00;;;20.10;99.90;;;;;;4896226;29;21029;-68
2023/07/24 05:46:31;;;;;;;1.77;1.70;;;20.20;99.90;;;;;;4896256;29;20838;-68
2023/07/24 05:49:00;;;;;;;1.37;1.37;;;20.30;99.90;;;;;;4896520;29;20478;-68
2023/07/24 05:51:26;;;;;;;3.03;2.13;;;20.40;99.90;;;;;;4895328;29;20898;-68
2023/07/24 05:53:53;;;;;;;1.20;1.20;;;20.50;99.90;;;;;;4896238;29;20499;-68
2023/07/24 05:56:20;;;;;;;1.80;1.80;;;20.70;99.90;;;;;;4896149;29;20471;-68
2023/07/24 05:58:46;;;;;;;1.63;1.53;;;20.90;99.90;;;;;;4896431;29;20475;-68
2023/07/24 06:01:14;;;;;;;2.00;1.70;;;21.20;99.90;;;;;;4896933;29;21030;-68
2023/07/24 06:03:41;;;;;;;1.47;1.47;;;21.40;99.90;;;;;;4897402;29;20942;-68
2023/07/24 06:06:08;;;;;;;1.63;1.63;;;21.50;99.90;;;;;;4896381;29;20479;-68
2023/07/24 06:08:34;;;;;;;1.60;1.60;;;21.50;99.90;;;;;;4896138;29;20894;-68
2023/07/24 06:11:01;;;;;;;1.30;1.30;;;21.90;99.90;;;;;;4895972;29;20494;-68
2023/07/24 06:13:28;;;;;;;1.17;1.17;;;22.20;99.90;;;;;;4895711;29;20914;-68
2023/07/24 06:15:54;;;;;;;1.27;1.27;;;22.20;99.90;;;;;;4895639;29;20467;-67
2023/07/24 06:18:22;;;;;;;1.30;1.30;;;22.10;99.90;;;;;;4895742;29;20470;-68
2023/07/24 06:20:53;;;;;;;0.80;0.80;;;21.90;99.90;;;;;;4895589;29;20529;-67
2023/07/24 06:23:20;;;;;;;0.90;0.90;;;22.00;99.90;;;;;;4896028;29;20474;-67
2023/07/24 06:25:47;;;;;;;1.50;1.50;;;22.10;99.90;;;;;;4895452;29;20565;-68
2023/07/24 06:28:13;;;;;;;2.27;1.80;;;22.00;99.90;;;;;;4895727;29;20474;-68
2023/07/24 06:30:40;;;;;;;1.57;1.57;;;21.80;99.90;;;;;;4895651;29;20856;-68
2023/07/24 06:33:07;;;;;;;1.30;1.30;;;21.60;99.90;;;;;;4895375;29;20621;-68
2023/07/24 06:35:35;;;;;;;1.43;1.43;;;21.50;99.90;;;;;;4895265;29;20958;-68
2023/07/24 06:38:01;;;;;;;1.50;1.50;;;21.20;99.90;;;;;;4894742;29;20551;-68
2023/07/24 06:40:28;;;;;;;1.63;1.63;;;21.00;99.90;;;;;;4895157;29;20491;-68
2023/07/24 06:42:55;;;;;;;2.00;1.90;;;20.80;99.90;;;;;;4895156;29;20490;-68
2023/07/24 06:45:21;;;;;;;1.53;1.53;;;20.70;99.90;;;;;;4895135;29;20479;-68
2023/07/24 06:47:48;;;;;;;2.17;2.10;;;20.50;99.90;;;;;;4895412;29;20465;-68
2023/07/24 06:50:15;;;;;;;1.73;1.73;;;20.50;99.90;;;;;;4895419;29;20963;-68
2023/07/24 06:52:43;;;;;;;1.97;1.87;;;20.50;99.90;;;;;;4894424;29;20470;-68
2023/07/24 06:55:09;;;;;;;2.23;2.23;;;20.50;99.90;;;;;;4894818;29;20474;-68
2023/07/24 06:57:36;;;;;;;2.50;2.40;;;20.50;99.90;;;;;;4894970;29;20948;-68
2023/07/24 07:00:03;;;;;;;2.30;2.20;;;20.50;99.90;;;;;;4895136;29;20549;-68
2023/07/24 07:02:30;;;;;;;2.00;2.00;;;20.50;99.90;;;;;;4895017;29;20508;-68
2023/07/24 07:04:56;;;;;;;2.30;2.20;;;20.60;99.90;;;;;;4895267;29;20516;-68
2023/07/24 07:07:23;;;;;;;2.40;2.30;;;20.60;99.90;;;;;;4894500;29;20635;-68
2023/07/24 07:09:51;;;;;;;3.00;2.90;;;20.60;99.90;;;;;;4895294;29;20469;-68
2023/07/24 07:12:18;;;;;;;2.63;2.63;;;20.50;99.90;;;;;;4894805;29;20521;-68
2023/07/24 07:14:44;;;;;;;2.50;2.40;;;20.50;99.90;;;;;;4894791;29;20493;-68
2023/07/24 07:17:11;;;;;;;2.63;2.53;;;20.40;99.90;;;;;;4895013;29;20823;-68
2023/07/24 07:19:38;;;;;;;3.07;2.87;;;20.40;99.90;;;;;;4895001;29;20507;-68
2023/07/24 07:22:05;;;;;;;2.37;2.27;;;20.40;99.90;;;;;;4894022;29;21001;-68
2023/07/24 07:24:31;;;;;;;2.40;2.30;;;20.20;99.90;;;;;;4894885;29;20481;-68
2023/07/24 07:26:59;;;;;;;2.00;2.00;;;20.20;99.90;;;;;;4894923;29;20841;-68
2023/07/24 07:29:26;;;;;;;2.70;2.60;;;20.10;99.90;;;;;;4895135;29;20467;-68
2023/07/24 07:31:53;;;;;;;3.10;2.80;;;20.10;99.90;;;;;;4894923;29;20491;-69
2023/07/24 07:34:19;;;;;;;2.27;2.17;;;20.00;99.90;;;;;;4894694;29;20476;-68
2023/07/24 07:36:46;;;;;;;2.00;1.90;;;19.80;99.90;;;;;;4894030;29;20478;-69
2023/07/24 07:39:13;;;;;;;3.30;3.10;;;19.60;99.90;;;;;;4894652;29;21574;-69
2023/07/24 07:41:40;;;;;;;2.57;2.47;;;19.40;99.90;;;;;;4894429;29;20488;-69
2023/07/24 07:44:08;;;;;;;4.20;2.47;;;19.30;99.90;;;;;;4894903;29;20860;-68
2023/07/24 07:46:35;;;;;;;1.83;1.83;;;19.10;99.90;;;;;;4894782;29;20478;-68
2023/07/24 07:49:01;;;;;;;3.00;2.70;;;19.00;99.90;;;;;;4894968;29;20966;-68
2023/07/24 07:51:28;;;;;;;3.23;3.00;;;19.00;99.90;;;;;;4894243;29;20885;-68
2023/07/24 07:53:55;;;;;;;3.10;2.90;;;18.90;99.90;;;;;;4894949;29;20471;-68
2023/07/24 07:56:22;;;;;;;2.27;2.17;;;18.80;99.90;;;;;;4894826;29;20942;-69
2023/07/24 07:58:48;;;;;;;3.20;3.10;;;18.80;99.90;;;;;;4894981;29;20479;-69
2023/07/24 08:01:17;;;;;;;2.87;2.70;;;18.70;99.90;;;;;;4894413;29;20499;-68
2023/07/24 08:03:43;;;;;;;3.27;3.10;;;18.70;99.90;;;;;;4896397;29;20479;-69
2023/07/24 08:06:11;;;;;;;3.37;3.17;;;18.60;99.90;;;;;;4897348;29;20514;-68
2023/07/24 08:08:37;;;;;;;2.77;2.57;;;18.60;99.90;;;;;;4898066;29;20524;-69
2023/07/24 08:11:06;;;;;;;3.13;3.00;;;18.50;99.90;;;;;;4897778;29;20978;-69
2023/07/24 08:13:32;;;;;;;4.47;3.80;;;18.60;99.90;;;;;;4898376;29;20554;-69
2023/07/24 08:16:02;;;;;;;2.83;2.73;;;18.50;99.90;;;;;;4897697;29;20478;-69
2023/07/24 08:18:30;;;;;;;3.57;3.37;;;18.50;99.90;;;;;;4898201;29;20839;-70
2023/07/24 08:20:56;;;;;;;2.80;2.60;;;18.40;99.90;;;;;;4897031;29;20566;-69
2023/07/24 08:23:23;;;;;;;1.63;1.53;;;18.40;99.90;;;;;;4897715;29;20471;-69
2023/07/24 08:25:53;;;;;;;3.53;2.63;;;18.40;99.90;;;;;;4897833;29;20527;-69
2023/07/24 08:28:20;;;;;;;2.60;2.40;;;18.50;99.90;;;;;;4897878;29;20471;-68
2023/07/24 08:30:47;;;;;;;2.20;2.10;;;18.40;99.90;;;;;;4897727;29;20547;-69
2023/07/24 08:33:14;;;;;;;3.33;3.17;;;18.30;99.90;;;;;;4897701;29;20986;-68
2023/07/24 08:35:42;;;;;;;1.37;1.37;;;18.30;99.90;;;;;;4897530;29;20847;-68
2023/07/24 08:38:08;;;;;;;1.90;1.80;;;18.30;99.90;;;;;;4896841;29;20467;-68
2023/07/24 08:40:35;;;;;;;3.93;3.67;;;18.40;99.90;;;;;;4897605;29;20503;-69
2023/07/24 08:43:02;;;;;;;2.03;1.83;;;18.30;99.90;;;;;;4897558;29;20475;-69
2023/07/24 08:45:30;;;;;;;1.63;1.53;;;18.30;99.90;;;;;;4897251;29;20487;-69
2023/07/24 08:47:57;;;;;;;2.00;1.90;;;18.40;99.90;;;;;;4897295;29;20467;-68
2023/07/24 08:50:26;;;;;;;2.27;1.73;;;18.40;99.90;;;;;;4897225;29;20844;-68
2023/07/24 08:52:54;;;;;;;1.33;1.33;;;18.40;99.90;;;;;;4896720;29;20554;-68
2023/07/24 08:55:22;;;;;;;1.13;0.93;;;18.30;99.90;;;;;;4897199;29;20571;-69
2023/07/24 08:57:49;;;;;;;1.83;1.73;;;18.30;99.90;;;;;;4896948;29;20958;-69
2023/07/24 09:00:16;;;;;;;0.90;0.90;;;18.40;99.90;;;;;;4897074;29;20491;-69
2023/07/24 09:02:43;;;;;;;0.70;0.70;;;18.40;99.90;;;;;;4897166;29;20478;-68
2023/07/24 09:05:11;;;;;;;1.43;1.33;;;18.50;99.90;;;;;;4896746;29;20822;-69
2023/07/24 09:07:38;;;;;;;1.37;1.37;;;18.50;99.90;;;;;;4896214;29;20540;-69
2023/07/24 09:10:07;;;;;;;1.30;1.30;;;18.40;99.90;;;;;;4897085;29;20491;-69
2023/07/24 09:12:34;;;;;;;1.63;1.53;;;18.40;99.90;;;;;;4896792;29;20547;-69
2023/07/24 09:15:05;;;;;;;1.43;1.40;;;18.40;99.90;;;;;;4896731;29;20540;-69
2023/07/24 09:17:32;;;;;;;1.47;1.37;;;18.40;99.90;;;;;;4896657;29;20515;-69
2023/07/24 09:20:00;;;;;;;1.33;1.33;;;18.40;99.90;;;;;;4896966;29;20495;-69
2023/07/24 09:22:27;;;;;;;1.43;1.43;;;18.40;99.90;;;;;;4896067;29;20889;-68
2023/07/24 09:24:55;;;;;;;1.47;1.47;;;18.40;99.90;;;;;;4896650;29;20468;-68
2023/07/24 09:27:26;;;;;;;1.90;1.80;;;18.60;99.90;;;;;;4896510;29;20578;-68
2023/07/24 09:29:53;;;;;;;14.73;1.93;;;18.80;99.90;;;;;;4896678;29;20467;-68
2023/07/24 09:32:21;;;;;;;1.43;1.43;;;19.00;99.90;;;;;;4896116;29;20497;-67
2023/07/24 09:34:50;;;;;;;0.90;0.90;;;19.20;99.90;;;;;;4896499;29;20550;-68
2023/07/24 09:37:25;;;;;;;1.97;1.87;;;19.40;99.90;;;;;;4895559;29;20500;-68
2023/07/24 09:39:51;;;;;;;1.53;1.23;;;19.50;99.90;;;;;;4896671;29;20556;-68
2023/07/24 09:42:18;;;;;;;1.57;1.57;;;19.60;99.90;;;;;;4896384;29;20492;-68
2023/07/24 09:44:46;;;;;;;1.87;1.87;;;19.60;99.90;;;;;;4896396;29;20489;-68
2023/07/24 09:47:13;;;;;;;0.90;0.90;;;19.70;99.90;;;;;;4897022;29;20473;-68
2023/07/24 09:49:40;;;;;;;1.00;1.00;;;19.60;99.90;;;;;;4896533;29;20817;-67
2023/07/24 09:52:11;;;;;;;0.87;0.87;;;19.60;99.90;;;;;;4895421;29;20494;-68
2023/07/24 09:54:46;;;;;;;4.20;1.40;;;19.50;99.90;;;;;;4896145;29;20476;-67
2023/07/24 09:57:14;;;;;;;1.27;1.20;;;19.50;99.90;;;;;;4896132;29;20471;-68
2023/07/24 09:59:42;;;;;;;0.93;0.93;;;19.40;99.90;;;;;;4896251;29;21016;-69
2023/07/24 10:02:13;;;;;;;1.00;1.00;;;19.30;99.90;;;;;;4895726;29;20997;-69
2023/07/24 10:04:41;;;;;;;0.60;0.60;;;19.30;99.90;;;;;;4896002;29;20473;-69
2023/07/24 10:07:08;;;;;;;1.00;1.00;;;19.40;99.90;;;;;;4895036;29;20478;-69
2023/07/24 10:09:36;;;;;;;1.33;1.20;;;19.50;99.90;;;;;;4895814;29;21020;-69
2023/07/24 10:12:03;;;;;;;1.63;1.63;;;19.60;99.90;;;;;;4895956;29;20569;-69
2023/07/24 10:14:32;;;;;;;1.10;1.10;;;19.60;99.90;;;;;;4896428;29;20456;-68
2023/07/24 10:16:59;;;;;;;0.60;0.60;;;19.80;99.90;;;;;;4895879;29;20474;-69
2023/07/24 10:19:37;;;;;;;0.80;0.80;;;19.90;99.90;;;;;;4895814;29;20929;-68
2023/07/24 10:22:04;;;;;;;1.17;1.17;;;19.90;99.90;;;;;;4894817;29;20585;-69
2023/07/24 10:24:31;;;;;;;1.50;1.40;;;20.00;99.90;;;;;;4895643;29;20477;-68
2023/07/24 10:26:58;;;;;;;1.30;1.20;;;20.00;99.90;;;;;;4895196;29;20846;-68
2023/07/24 10:29:25;;;;;;;0.80;0.80;;;20.10;99.90;;;;;;4895596;29;20480;-68
2023/07/24 10:31:55;;;;;;;1.37;1.30;;;20.10;99.90;;;;;;4895422;29;20569;-68
2023/07/24 10:34:22;;;;;;;1.10;1.10;;;20.30;99.90;;;;;;4895465;29;20969;-68
2023/07/24 10:36:50;;;;;;;1.40;1.40;;;20.30;99.90;;;;;;4894793;29;20480;-68
2023/07/24 10:39:20;;;;;;;0.73;0.73;;;20.50;99.90;;;;;;4895715;29;20489;-68
2023/07/24 10:41:47;;;;;;;1.87;1.77;;;20.60;99.90;;;;;;4895518;29;20506;-68
2023/07/24 10:44:14;;;;;;;1.93;1.70;;;20.80;99.90;;;;;;4895245;29;20985;-68
2023/07/24 10:46:42;;;;;;;1.30;1.30;;;21.10;99.90;;;;;;4895138;29;20475;-68
2023/07/24 10:49:09;;;;;;;1.77;1.67;;;21.30;99.90;;;;;;4895250;29;20909;-68
2023/07/24 10:51:37;;;;;;;2.00;2.00;;;21.40;99.90;;;;;;4894540;29;20481;-68
2023/07/24 10:54:06;;;;;;;5.60;1.90;;;21.40;99.90;;;;;;4895050;29;20571;-68
2023/07/24 10:56:33;;;;;;;1.20;1.20;;;21.60;99.90;;;;;;4895150;29;20608;-68
2023/07/24 10:59:03;;;;;;;1.57;1.57;;;21.50;99.90;;;;;;4895506;29;20468;-68
2023/07/24 11:01:32;;;;;;;1.60;1.60;;;21.80;99.90;;;;;;4894848;29;20573;-69
2023/07/24 11:03:59;;;;;;;1.57;1.57;;;22.00;99.90;;;;;;4895143;29;20574;-68
2023/07/24 11:06:26;;;;;;;1.83;1.83;;;22.30;99.90;;;;;;4894538;29;20846;-68
2023/07/24 11:08:53;;;;;;;1.30;1.30;;;22.20;99.90;;;;;;4895287;29;20544;-70
2023/07/24 11:11:21;;;;;;;1.37;1.20;;;22.10;99.90;;;;;;4894891;29;20484;-68
2023/07/24 11:13:47;;;;;;;1.10;1.10;;;22.10;99.90;;;;;;4894986;29;20474;-68
2023/07/24 11:16:14;;;;;;;1.37;1.37;;;21.90;99.90;;;;;;4894713;29;20478;-68
2023/07/24 11:18:48;;;;;;;1.27;1.27;;;21.70;99.90;;;;;;4895192;29;20478;-68
2023/07/24 11:21:16;;;;;;;1.20;1.20;;;21.70;99.90;;;;;;4894205;29;20527;-68
2023/07/24 11:23:47;;;;;;;1.20;1.20;;;21.80;99.90;;;;;;4894939;29;21026;-68
2023/07/24 11:26:15;;;;;;;1.60;1.60;;;22.00;99.90;;;;;;4894763;29;20850;-68
2023/07/24 11:28:43;;;;;;;1.47;1.47;;;22.10;99.90;;;;;;4894893;29;20474;-68
2023/07/24 11:31:10;;;;;;;1.40;1.40;;;22.20;99.90;;;;;;4894899;29;20555;-68
2023/07/24 11:33:37;;;;;;;1.40;1.40;;;22.20;99.90;;;;;;4895061;29;20541;-68
2023/07/24 11:36:05;;;;;;;1.87;1.77;;;22.20;99.90;;;;;;4894032;29;20824;-68
2023/07/24 11:38:32;;;;;;;3.60;1.57;;;22.20;99.90;;;;;;4895228;29;20573;-68
2023/07/24 11:40:58;;;;;;;1.47;1.43;;;22.10;99.90;;;;;;4896878;29;20492;-68
2023/07/24 11:43:26;;;;;;;1.50;1.50;;;22.00;99.90;;;;;;4898740;29;20469;-68
2023/07/24 11:45:55;;;;;;;1.80;1.70;;;22.10;99.90;;;;;;4898508;29;20853;-67
2023/07/24 11:48:24;;;;;;;1.40;1.40;;;22.10;99.90;;;;;;4898499;29;20474;-67
2023/07/24 11:50:52;;;;;;;0.90;0.90;;;22.20;99.90;;;;;;4898303;29;21187;-68
2023/07/24 11:53:22;;;;;;;0.90;0.90;;;22.30;99.90;;;;;;4898426;29;20477;-67
2023/07/24 11:55:49;;;;;;;1.60;1.60;;;22.20;99.90;;;;;;4898149;29;20472;-67
2023/07/24 11:58:17;;;;;;;1.30;1.30;;;22.40;99.90;;;;;;4898240;29;20531;-68
2023/07/24 12:00:44;;;;;;;1.53;1.53;;;22.30;99.90;;;;;;4898243;29;20510;-68
2023/07/24 12:03:12;;;;;;;1.70;1.67;;;22.30;99.90;;;;;;4898290;29;20479;-67
2023/07/24 12:05:39;;;;;;;0.73;0.73;;;22.50;99.90;;;;;;4898057;29;20554;-68
2023/07/24 12:08:06;;;;;;;0.80;0.80;;;22.70;99.90;;;;;;4897217;29;20567;-68
2023/07/24 12:10:36;;;;;;;0.77;0.77;;;22.80;99.90;;;;;;4897982;29;20491;-68
2023/07/24 12:13:02;;;;;;;0.83;0.83;;;22.80;99.90;;;;;;4898137;29;20468;-68
2023/07/24 12:15:29;;;;;;;1.10;1.10;;;22.80;99.90;;;;;;4897674;29;20993;-68
2023/07/24 12:17:56;;;;;;;0.60;0.60;;;22.80;99.90;;;;;;4897889;29;20523;-68
2023/07/24 12:20:24;;;;;;;0.60;0.60;;;22.90;99.90;;;;;;4897742;29;20473;-68
2023/07/24 12:22:51;;;;;;;0.53;0.53;;;22.90;99.90;;;;;;4896642;29;21081;-68
2023/07/24 12:25:19;;;;;;;0.70;0.70;;;22.90;99.90;;;;;;4897731;29;20531;-68
2023/07/24 12:27:46;;;;;;;0.80;0.80;;;22.80;99.90;;;;;;4897791;29;20472;-68
2023/07/24 12:30:13;;;;;;;1.10;1.10;;;22.90;99.90;;;;;;4897660;29;20986;-68
2023/07/24 12:32:39;;;;;;;0.60;0.60;;;22.90;99.90;;;;;;4897599;29;20490;-68
2023/07/24 12:35:07;;;;;;;0.97;0.97;;;22.90;99.90;;;;;;4897425;29;20472;-68
2023/07/24 12:37:36;;;;;;;0.60;0.60;;;22.90;99.90;;;;;;4896688;29;20472;-68
2023/07/24 12:40:03;;;;;;;0.77;0.77;;;22.90;99.90;;;;;;4895318;29;20481;-68
2023/07/24 12:42:30;;;;;;;1.13;1.13;;;23.00;99.90;;;;;;4896910;29;20500;-68
2023/07/24 12:44:57;;;;;;;1.93;1.10;;;23.00;99.90;;;;;;4897422;29;20469;-68
2023/07/24 12:47:25;;;;;;;0.80;0.80;;;23.20;99.90;;;;;;4897676;29;20560;-68
2023/07/24 12:49:52;;;;;;;1.00;1.00;;;23.30;99.90;;;;;;4897172;29;20476;-68
2023/07/24 12:52:19;;;;;;;0.83;0.83;;;23.40;99.90;;;;;;4896449;29;20589;-68
2023/07/24 12:54:47;;;;;;;0.90;0.90;;;23.50;99.90;;;;;;4897191;29;20600;-68
2023/07/24 12:57:13;;;;;;;1.10;1.10;;;23.70;99.90;;;;;;4897173;29;20554;-68
2023/07/24 12:59:40;;;;;;;0.77;0.77;;;23.70;99.90;;;;;;4897236;29;20474;-68
2023/07/24 13:02:07;;;;;;;0.60;0.60;;;23.80;99.90;;;;;;4896932;29;20545;-68
2023/07/24 13:04:33;;;;;;;0.60;0.60;;;23.70;99.90;;;;;;4896814;29;20474;-68
2023/07/24 13:07:00;;;;;;;0.80;0.80;;;23.50;99.90;;;;;;4896399;29;20483;-68
2023/07/24 13:09:29;;;;;;;0.60;0.60;;;23.50;99.90;;;;;;4897195;29;20474;-68
2023/07/24 13:11:57;;;;;;;0.57;0.57;;;23.50;99.90;;;;;;4896899;29;20526;-68
2023/07/24 13:14:23;;;;;;;0.50;0.50;;;23.50;99.90;;;;;;4896670;29;20493;-68
2023/07/24 13:16:50;;;;;;;0.77;0.77;;;23.40;99.90;;;;;;4897566;29;20552;-72
2023/07/24 13:19:17;;;;;;;0.70;0.70;;;23.40;99.90;;;;;;4897369;29;20478;-71
2023/07/24 13:21:45;;;;;;;0.57;0.57;;;23.50;99.90;;;;;;4896728;29;20504;-71
2023/07/24 13:24:12;;;;;;;0.70;0.70;;;23.60;99.90;;;;;;4897710;29;20467;-71
2023/07/24 13:26:40;;;;;;;0.40;0.40;;;23.70;99.90;;;;;;4897973;29;20464;-72
2023/07/24 13:29:08;;;;;;;0.60;0.60;;;23.70;99.90;;;;;;4898043;29;20786;-71
2023/07/24 13:31:35;;;;;;;0.80;0.80;;;23.80;99.90;;;;;;4898069;29;20495;-70
2023/07/24 13:34:02;;;;;;;1.17;1.17;;;23.70;99.90;;;;;;4897655;29;20922;-72
2023/07/24 13:36:28;;;;;;;0.73;0.73;;;23.70;99.90;;;;;;4896705;29;20682;-71
2023/07/24 13:38:55;;;;;;;0.40;0.40;;;23.60;99.90;;;;;;4897353;29;20575;-71
2023/07/24 13:41:22;;;;;;;0.37;0.37;;;23.60;99.90;;;;;;4896666;29;20592;-70
2023/07/24 13:43:48;;;;;;;0.50;0.50;;;23.60;99.90;;;;;;4896768;29;20993;-70
2023/07/24 13:46:16;;;;;;;1.10;0.83;;;23.80;99.90;;;;;;4895808;29;20550;-70
2023/07/24 13:48:43;;;;;;;0.70;0.70;;;24.00;99.90;;;;;;4896448;29;20908;-70
2023/07/24 13:51:10;;;;;;;1.50;1.20;;;24.20;99.90;;;;;;4895733;29;20867;-70
2023/07/24 13:53:37;;;;;;;0.97;0.97;;;24.20;99.90;;;;;;4896819;29;20469;-71
2023/07/24 13:56:04;;;;;;;1.00;1.00;;;24.20;99.90;;;;;;4896335;29;20542;-71
2023/07/24 13:58:31;;;;;;;1.57;1.53;;;24.30;99.90;;;;;;4896638;29;20554;-70
2023/07/24 14:00:58;;;;;;;1.70;1.70;;;24.20;99.90;;;;;;4894866;29;20509;-69
2023/07/24 14:03:28;;;;;;;1.30;1.30;;;24.20;99.90;;;;;;4896497;29;21010;-71
2023/07/24 14:05:56;;;;;;;0.93;0.93;;;24.10;99.90;;;;;;4895851;29;20472;-67
2023/07/24 14:08:22;;;;;;;0.80;0.80;;;24.20;99.90;;;;;;4896957;29;20471;-70
2023/07/24 14:10:49;;;;;;;1.00;1.00;;;24.30;99.90;;;;;;4896758;29;21028;-71
2023/07/24 14:13:16;;;;;;;1.80;1.70;;;24.40;99.90;;;;;;4897129;29;20547;-71
2023/07/24 14:15:43;;;;;;;1.00;1.00;;;24.50;99.90;;;;;;4896607;29;20482;-72
2023/07/24 14:18:09;;;;;;;1.37;1.37;;;24.40;99.90;;;;;;4896997;29;20567;-73
2023/07/24 14:20:40;;;;;;;1.13;1.13;;;24.50;99.90;;;;;;4896907;29;20860;-71
2023/07/24 14:23:07;;;;;;;1.03;1.03;;;24.50;99.90;;;;;;4895962;29;20507;-70
2023/07/24 14:25:34;;;;;;;0.80;0.80;;;24.40;99.90;;;;;;4897068;29;20555;-71
2023/07/24 14:28:01;;;;;;;0.90;0.90;;;24.40;99.90;;;;;;4896451;29;20562;-70
2023/07/24 14:30:27;;;;;;;0.93;0.93;;;24.30;99.90;;;;;;4896356;29;21033;-71
2023/07/24 14:32:54;;;;;;;1.77;1.77;;;24.20;99.90;;;;;;4896500;29;20481;-71
2023/07/24 14:35:21;;;;;;;1.17;1.17;;;24.20;99.90;;;;;;4896449;29;20816;-71
2023/07/24 14:37:49;;;;;;;1.20;1.20;;;24.10;99.90;;;;;;4895713;29;20506;-71
2023/07/24 14:40:16;;;;;;;1.40;1.40;;;24.20;99.90;;;;;;4894616;29;20509;-72
2023/07/24 14:42:43;;;;;;;1.10;1.10;;;24.10;99.90;;;;;;4896179;29;20515;-70
2023/07/24 14:45:11;;;;;;;1.20;1.20;;;24.10;99.90;;;;;;4896671;29;20482;-73
2023/07/24 14:47:38;;;;;;;1.30;1.30;;;23.90;99.90;;;;;;4896390;29;20557;-71
2023/07/24 14:50:05;;;;;;;1.73;1.63;;;23.90;99.90;;;;;;4897164;29;20470;-70
2023/07/24 14:52:32;;;;;;;1.43;1.43;;;23.70;99.90;;;;;;4895641;29;20485;-71
2023/07/24 14:55:00;;;;;;;0.90;0.90;;;23.70;99.90;;;;;;4896720;29;20509;-70
2023/07/24 14:57:27;;;;;;;0.93;0.93;;;23.60;99.90;;;;;;4896885;29;20636;-70
2023/07/24 14:59:54;;;;;;;1.43;1.40;;;23.40;99.90;;;;;;4897162;29;20878;-70
2023/07/24 15:02:21;;;;;;;1.50;1.50;;;23.40;99.90;;;;;;4896178;29;20521;-71
2023/07/24 15:04:48;;;;;;;0.90;0.90;;;23.50;99.90;;;;;;4896807;29;20490;-72
2023/07/24 15:07:15;;;;;;;1.40;1.30;;;23.80;99.90;;;;;;4896299;29;20466;-71
2023/07/24 15:09:43;;;;;;;1.00;1.00;;;23.90;99.90;;;;;;4897161;29;20470;-70
2023/07/24 15:12:11;;;;;;;1.17;1.17;;;24.10;99.90;;;;;;4898240;29;20510;-71
2023/07/24 15:14:38;;;;;;;1.40;1.40;;;24.30;99.90;;;;;;4903081;29;20478;-71
2023/07/24 15:17:06;;;;;;;1.57;1.57;;;24.20;99.90;;;;;;4903323;29;20474;-72
2023/07/24 15:19:33;;;;;;;1.03;1.03;;;24.10;99.90;;;;;;4903583;29;20530;-72
2023/07/24 15:22:00;;;;;;;1.30;1.30;;;24.10;99.90;;;;;;4902328;29;20517;-70
2023/07/24 15:24:26;;;;;;;1.00;1.00;;;24.10;99.90;;;;;;4902601;29;20486;-70
2023/07/24 15:26:53;;;;;;;3.10;1.40;;;24.20;99.90;;;;;;4902839;29;20474;-70
2023/07/24 15:29:21;;;;;;;1.10;1.10;;;24.20;99.90;;;;;;4902344;29;20964;-70
2023/07/24 15:31:48;;;;;;;1.27;1.27;;;24.10;99.90;;;;;;4902015;29;20985;-70
2023/07/24 15:34:14;;;;;;;1.17;1.17;;;24.10;99.90;;;;;;4901717;29;20896;-71
2023/07/24 15:36:41;;;;;;;1.30;1.30;;;24.30;99.90;;;;;;4900594;29;20859;-70
2023/07/24 15:39:08;;;;;;;0.90;0.90;;;24.10;99.90;;;;;;4901469;29;20738;-71
2023/07/24 15:41:35;;;;;;;1.07;1.07;;;24.10;99.90;;;;;;4901306;29;20501;-69
2023/07/24 15:44:01;;;;;;;1.23;1.23;;;24.00;99.90;;;;;;4901481;29;20498;-68
2023/07/24 15:46:31;;;;;;;1.10;1.10;;;23.90;99.90;;;;;;4901578;29;20474;-69
2023/07/24 15:48:58;;;;;;;0.87;0.87;;;23.80;99.90;;;;;;4901637;29;20466;-69
2023/07/24 15:51:25;;;;;;;1.40;1.40;;;23.60;99.90;;;;;;4901074;29;20490;-69
2023/07/24 15:53:52;;;;;;;1.17;1.17;;;23.50;99.90;;;;;;4901186;29;20477;-69
2023/07/24 15:56:19;;;;;;;1.50;1.33;;;23.50;99.90;;;;;;4901579;29;20482;-69
2023/07/24 15:58:47;;;;;;;0.83;0.83;;;23.50;99.90;;;;;;4901804;29;20472;-69
2023/07/24 16:01:14;;;;;;;1.33;1.33;;;23.50;99.90;;;;;;4901549;29;20499;-69
2023/07/24 16:03:42;;;;;;;1.10;1.10;;;23.70;99.90;;;;;;4901421;29;20586;-68
2023/07/24 16:06:10;;;;;;;1.23;1.23;;;24.00;99.90;;;;;;4900395;29;20588;-69
2023/07/24 16:08:37;;;;;;;2.33;1.40;;;24.20;99.90;;;;;;4901828;29;20498;-70
2023/07/24 16:11:07;;;;;;;1.20;1.20;;;24.50;99.90;;;;;;4901722;29;20490;-69
2023/07/24 16:13:35;;;;;;;1.20;1.20;;;24.70;99.90;;;;;;4927325;23;20504;-69
2023/07/24 16:16:02;;;;;;;1.30;1.30;;;24.70;99.90;;;;;;4919650;29;20469;-69
2023/07/24 16:18:29;;;;;;;1.07;1.07;;;24.60;99.90;;;;;;4920168;29;20848;-70
2023/07/24 16:20:57;;;;;;;1.10;1.10;;;24.60;99.90;;;;;;4919290;29;20521;-70
2023/07/24 16:23:24;;;;;;;1.13;1.13;;;24.60;99.90;;;;;;4917306;29;20497;-70
2023/07/24 16:25:50;;;;;;;0.97;0.97;;;24.60;99.90;;;;;;4897485;29;20470;-69
2023/07/24 16:28:17;;;;;;;0.80;0.80;;;24.50;99.90;;;;;;4897861;29;20480;-71
2023/07/24 16:30:44;;;;;;;0.80;0.80;;;24.50;99.90;;;;;;4898222;29;20471;-70
2023/07/24 16:33:11;;;;;;;0.80;0.80;;;24.40;99.90;;;;;;4897814;29;20495;-69
2023/07/24 16:35:38;;;;;;;1.13;1.13;;;24.20;99.90;;;;;;4897824;29;20496;-70
2023/07/24 16:38:06;;;;;;;1.00;1.00;;;24.20;99.90;;;;;;4897372;29;20530;-70
2023/07/24 16:40:32;;;;;;;0.90;0.90;;;24.20;99.90;;;;;;4896251;29;20852;-70
2023/07/24 16:42:59;;;;;;;1.03;1.03;;;24.40;99.90;;;;;;4897828;29;20483;-70
2023/07/24 16:45:26;;;;;;;1.10;1.10;;;24.30;99.90;;;;;;4897806;29;20494;-70
2023/07/24 16:47:52;;;;;;;1.03;1.03;;;24.10;99.90;;;;;;4898066;29;20470;-70